sensor_id;sensor_type;location;lat;lon;timestamp;temperature;humidity
31729;DHT22;18309;43.658;1.312;2022-12-18T00:01:47;7.70;99.90
31729;DHT22;18309;43.658;1.312;2022-12-18T00:04:24;7.70;99.90
31729;DHT22;18309;43.658;1.312;2022-12-18T00:06:50;7.70;99.90
31729;DHT22;18309;43.658;1.312;2022-12-18T00:09:16;7.70;99.90
31729;DHT22;18309;43.658;1.312;2022-12-18T00:11:42;7.70;99.90
31729;DHT22;18309;43.658;1.312;2022-12-18T00:14:09;7.70;99.90
31729;DHT22;18309;43.658;1.312;2022-12-18T00:16:36;7.70;99.90
31729;DHT22;18309;43.658;1.312;2022-12-18T00:19:03;7.70;99.90
31729;DHT22;18309;43.658;1.312;2022-12-18T00:21:30;7.70;99.90
31729;DHT22;18309;43.658;1.312;2022-12-18T00:23:57;7.70;99.90
31729;DHT22;18309;43.658;1.312;2022-12-18T00:26:26;7.70;99.90
31729;DHT22;18309;43.658;1.312;2022-12-18T00:28:52;7.70;99.90
31729;DHT22;18309;43.658;1.312;2022-12-18T00:31:20;7.80;99.90
31729;DHT22;18309;43.658;1.312;2022-12-18T00:33:47;7.80;99.90
31729;DHT22;18309;43.658;1.312;2022-12-18T00:36:15;7.80;99.90
31729;DHT22;18309;43.658;1.312;2022-12-18T00:38:42;7.80;99.90
31729;DHT22;18309;43.658;1.312;2022-12-18T00:41:09;7.80;99.90
31729;DHT22;18309;43.658;1.312;2022-12-18T00:43:36;7.80;99.90
31729;DHT22;18309;43.658;1.312;2022-12-18T00:46:02;7.90;99.90
31729;DHT22;18309;43.658;1.312;2022-12-18T00:48:28;7.80;99.90
31729;DHT22;18309;43.658;1.312;2022-12-18T00:50:53;7.90;99.90
31729;DHT22;18309;43.658;1.312;2022-12-18T00:53:20;7.80;99.90
31729;DHT22;18309;43.658;1.312;2022-12-18T00:55:46;7.80;99.90
31729;DHT22;18309;43.658;1.312;2022-12-18T00:58:14;7.80;99.90
31729;DHT22;18309;43.658;1.312;2022-12-18T01:00:39;7.90;99.90
31729;DHT22;18309;43.658;1.312;2022-12-18T01:03:05;7.90;99.90
31729;DHT22;18309;43.658;1.312;2022-12-18T01:05:32;7.90;99.90
31729;DHT22;18309;43.658;1.312;2022-12-18T01:07:58;7.90;99.90
31729;DHT22;18309;43.658;1.312;2022-12-18T01:10:24;7.90;99.90
31729;DHT22;18309;43.658;1.312;2022-12-18T01:12:50;7.90;99.90
31729;DHT22;18309;43.658;1.312;2022-12-18T01:15:17;8.00;99.90
31729;DHT22;18309;43.658;1.312;2022-12-18T01:17:43;7.90;99.90
31729;DHT22;18309;43.658;1.312;2022-12-18T01:20:11;7.90;99.90
31729;DHT22;18309;43.658;1.312;2022-12-18T01:22:37;8.00;99.90
31729;DHT22;18309;43.658;1.312;2022-12-18T01:25:04;7.90;99.90
31729;DHT22;18309;43.658;1.312;2022-12-18T01:27:30;8.00;99.90
31729;DHT22;18309;43.658;1.312;2022-12-18T01:29:56;8.00;99.90
31729;DHT22;18309;43.658;1.312;2022-12-18T01:32:22;8.00;99.90
31729;DHT22;18309;43.658;1.312;2022-12-18T01:34:47;8.00;99.90
31729;DHT22;18309;43.658;1.312;2022-12-18T01:37:13;8.00;99.90
31729;DHT22;18309;43.658;1.312;2022-12-18T01:39:39;8.00;99.90
31729;DHT22;18309;43.658;1.312;2022-12-18T01:42:12;8.00;99.90
31729;DHT22;18309;43.658;1.312;2022-12-18T01:49:47;8.00;99.90
31729;DHT22;18309;43.658;1.312;2022-12-18T01:52:13;8.00;99.90
31729;DHT22;18309;43.658;1.312;2022-12-18T01:54:39;8.00;99.90
31729;DHT22;18309;43.658;1.312;2022-12-18T01:57:05;8.00;99.90
31729;DHT22;18309;43.658;1.312;2022-12-18T01:59:32;8.00;99.90
31729;DHT22;18309;43.658;1.312;2022-12-18T02:01:59;8.00;99.90
31729;DHT22;18309;43.658;1.312;2022-12-18T02:04:27;8.00;99.90
31729;DHT22;18309;43.658;1.312;2022-12-18T02:07:13;8.00;99.90
31729;DHT22;18309;43.658;1.312;2022-12-18T02:09:48;8.00;99.90
31729;DHT22;18309;43.658;1.312;2022-12-18T02:12:27;8.00;99.90
31729;DHT22;18309;43.658;1.312;2022-12-18T02:17:31;8.00;99.90
31729;DHT22;18309;43.658;1.312;2022-12-18T02:21:07;7.90;99.90
31729;DHT22;18309;43.658;1.312;2022-12-18T02:26:03;7.90;99.90
31729;DHT22;18309;43.658;1.312;2022-12-18T02:28:33;7.80;99.90
31729;DHT22;18309;43.658;1.312;2022-12-18T02:31:01;7.80;99.90
31729;DHT22;18309;43.658;1.312;2022-12-18T02:33:31;7.70;99.90
31729;DHT22;18309;43.658;1.312;2022-12-18T02:35:59;7.70;99.90
31729;DHT22;18309;43.658;1.312;2022-12-18T02:38:25;7.70;99.90
31729;DHT22;18309;43.658;1.312;2022-12-18T02:40:53;7.70;99.90
31729;DHT22;18309;43.658;1.312;2022-12-18T02:43:20;7.70;99.90
31729;DHT22;18309;43.658;1.312;2022-12-18T02:45:55;7.60;99.90
31729;DHT22;18309;43.658;1.312;2022-12-18T02:48:29;7.60;99.90
31729;DHT22;18309;43.658;1.312;2022-12-18T02:53:34;7.50;99.90
31729;DHT22;18309;43.658;1.312;2022-12-18T03:01:30;7.50;99.90
31729;DHT22;18309;43.658;1.312;2022-12-18T03:04:06;7.50;99.90
31729;DHT22;18309;43.658;1.312;2022-12-18T03:06:40;7.50;99.90
31729;DHT22;18309;43.658;1.312;2022-12-18T03:09:10;7.40;99.90
31729;DHT22;18309;43.658;1.312;2022-12-18T03:11:42;7.40;99.90
31729;DHT22;18309;43.658;1.312;2022-12-18T03:14:31;7.30;99.90
31729;DHT22;18309;43.658;1.312;2022-12-18T03:17:01;7.30;99.90
31729;DHT22;18309;43.658;1.312;2022-12-18T03:19:29;7.30;99.90
31729;DHT22;18309;43.658;1.312;2022-12-18T03:21:58;7.30;99.90
31729;DHT22;18309;43.658;1.312;2022-12-18T03:24:28;7.30;99.90
31729;DHT22;18309;43.658;1.312;2022-12-18T03:26:59;7.20;99.90
31729;DHT22;18309;43.658;1.312;2022-12-18T03:29:35;7.20;99.90
31729;DHT22;18309;43.658;1.312;2022-12-18T03:32:17;7.20;99.90
31729;DHT22;18309;43.658;1.312;2022-12-18T03:34:46;7.10;99.90
31729;DHT22;18309;43.658;1.312;2022-12-18T03:37:14;7.10;99.90
31729;DHT22;18309;43.658;1.312;2022-12-18T03:39:40;7.10;99.90
31729;DHT22;18309;43.658;1.312;2022-12-18T03:45:13;7.00;99.90
31729;DHT22;18309;43.658;1.312;2022-12-18T03:55:48;6.90;99.90
31729;DHT22;18309;43.658;1.312;2022-12-18T03:58:18;6.90;99.90
31729;DHT22;18309;43.658;1.312;2022-12-18T04:00:45;6.90;99.90
31729;DHT22;18309;43.658;1.312;2022-12-18T04:03:13;6.90;99.90
31729;DHT22;18309;43.658;1.312;2022-12-18T04:05:41;6.90;99.90
31729;DHT22;18309;43.658;1.312;2022-12-18T04:08:07;6.90;99.90
31729;DHT22;18309;43.658;1.312;2022-12-18T04:10:36;6.90;99.90
31729;DHT22;18309;43.658;1.312;2022-12-18T04:13:02;6.90;99.90
31729;DHT22;18309;43.658;1.312;2022-12-18T04:15:28;6.90;99.90
31729;DHT22;18309;43.658;1.312;2022-12-18T04:17:54;6.90;99.90
31729;DHT22;18309;43.658;1.312;2022-12-18T04:20:19;6.90;99.90
31729;DHT22;18309;43.658;1.312;2022-12-18T04:22:46;6.90;99.90
31729;DHT22;18309;43.658;1.312;2022-12-18T04:25:12;6.90;99.90
31729;DHT22;18309;43.658;1.312;2022-12-18T04:27:38;6.90;99.90
31729;DHT22;18309;43.658;1.312;2022-12-18T04:30:05;6.80;99.90
31729;DHT22;18309;43.658;1.312;2022-12-18T04:32:31;6.90;99.90
31729;DHT22;18309;43.658;1.312;2022-12-18T04:34:56;6.90;99.90
31729;DHT22;18309;43.658;1.312;2022-12-18T04:37:22;6.80;99.90
31729;DHT22;18309;43.658;1.312;2022-12-18T04:39:48;6.80;99.90
31729;DHT22;18309;43.658;1.312;2022-12-18T04:42:13;6.80;99.90
31729;DHT22;18309;43.658;1.312;2022-12-18T04:44:39;6.80;99.90
31729;DHT22;18309;43.658;1.312;2022-12-18T04:47:05;6.80;99.90
31729;DHT22;18309;43.658;1.312;2022-12-18T04:49:30;6.80;99.90
31729;DHT22;18309;43.658;1.312;2022-12-18T04:51:56;6.80;99.90
31729;DHT22;18309;43.658;1.312;2022-12-18T04:54:22;6.70;99.90
31729;DHT22;18309;43.658;1.312;2022-12-18T04:56:47;6.70;99.90
31729;DHT22;18309;43.658;1.312;2022-12-18T04:59:13;6.80;99.90
31729;DHT22;18309;43.658;1.312;2022-12-18T05:01:39;6.70;99.90
31729;DHT22;18309;43.658;1.312;2022-12-18T05:04:05;6.70;99.90
31729;DHT22;18309;43.658;1.312;2022-12-18T05:06:30;6.70;99.90
31729;DHT22;18309;43.658;1.312;2022-12-18T05:08:56;6.70;99.90
31729;DHT22;18309;43.658;1.312;2022-12-18T05:11:22;6.70;99.90
31729;DHT22;18309;43.658;1.312;2022-12-18T05:13:48;6.70;99.90
31729;DHT22;18309;43.658;1.312;2022-12-18T05:16:14;6.60;99.90
31729;DHT22;18309;43.658;1.312;2022-12-18T05:18:40;6.60;99.90
31729;DHT22;18309;43.658;1.312;2022-12-18T05:21:06;6.60;99.90
31729;DHT22;18309;43.658;1.312;2022-12-18T05:23:35;6.50;99.90
31729;DHT22;18309;43.658;1.312;2022-12-18T05:26:03;6.50;99.90
31729;DHT22;18309;43.658;1.312;2022-12-18T05:28:30;6.50;99.90
31729;DHT22;18309;43.658;1.312;2022-12-18T05:30:58;6.50;99.90
31729;DHT22;18309;43.658;1.312;2022-12-18T05:33:26;6.40;99.90
31729;DHT22;18309;43.658;1.312;2022-12-18T05:35:58;6.40;99.90
31729;DHT22;18309;43.658;1.312;2022-12-18T05:38:27;6.40;99.90
31729;DHT22;18309;43.658;1.312;2022-12-18T05:40:54;6.30;99.90
31729;DHT22;18309;43.658;1.312;2022-12-18T05:43:21;6.30;99.90
31729;DHT22;18309;43.658;1.312;2022-12-18T05:45:48;6.30;99.90
31729;DHT22;18309;43.658;1.312;2022-12-18T05:48:14;6.20;99.90
31729;DHT22;18309;43.658;1.312;2022-12-18T05:50:41;6.20;99.90
31729;DHT22;18309;43.658;1.312;2022-12-18T05:53:08;6.20;99.90
31729;DHT22;18309;43.658;1.312;2022-12-18T05:55:34;6.20;99.90
31729;DHT22;18309;43.658;1.312;2022-12-18T05:58:01;6.10;99.90
31729;DHT22;18309;43.658;1.312;2022-12-18T06:00:26;6.10;99.90
31729;DHT22;18309;43.658;1.312;2022-12-18T06:02:52;6.10;99.90
31729;DHT22;18309;43.658;1.312;2022-12-18T06:05:18;6.10;99.90
31729;DHT22;18309;43.658;1.312;2022-12-18T06:07:43;6.00;99.90
31729;DHT22;18309;43.658;1.312;2022-12-18T06:10:09;6.00;99.90
31729;DHT22;18309;43.658;1.312;2022-12-18T06:12:35;6.00;99.90
31729;DHT22;18309;43.658;1.312;2022-12-18T06:15:01;6.00;99.90
31729;DHT22;18309;43.658;1.312;2022-12-18T06:17:31;6.00;99.90
31729;DHT22;18309;43.658;1.312;2022-12-18T06:19:57;5.90;99.90
31729;DHT22;18309;43.658;1.312;2022-12-18T06:22:23;5.90;99.90
31729;DHT22;18309;43.658;1.312;2022-12-18T06:24:48;5.90;99.90
31729;DHT22;18309;43.658;1.312;2022-12-18T06:27:14;5.90;99.90
31729;DHT22;18309;43.658;1.312;2022-12-18T06:29:40;5.90;99.90
31729;DHT22;18309;43.658;1.312;2022-12-18T06:32:06;5.80;99.90
31729;DHT22;18309;43.658;1.312;2022-12-18T06:34:32;5.80;99.90
31729;DHT22;18309;43.658;1.312;2022-12-18T06:36:58;5.80;99.90
31729;DHT22;18309;43.658;1.312;2022-12-18T06:39:26;5.80;99.90
31729;DHT22;18309;43.658;1.312;2022-12-18T06:41:52;5.80;99.90
31729;DHT22;18309;43.658;1.312;2022-12-18T06:44:18;5.80;99.90
31729;DHT22;18309;43.658;1.312;2022-12-18T06:46:44;5.80;99.90
31729;DHT22;18309;43.658;1.312;2022-12-18T06:49:10;5.80;99.90
31729;DHT22;18309;43.658;1.312;2022-12-18T06:51:36;5.80;99.90
31729;DHT22;18309;43.658;1.312;2022-12-18T06:54:01;5.80;99.90
31729;DHT22;18309;43.658;1.312;2022-12-18T06:56:27;5.70;99.90
31729;DHT22;18309;43.658;1.312;2022-12-18T06:58:53;5.70;99.90
31729;DHT22;18309;43.658;1.312;2022-12-18T07:01:19;5.70;99.90
31729;DHT22;18309;43.658;1.312;2022-12-18T07:03:45;5.70;99.90
31729;DHT22;18309;43.658;1.312;2022-12-18T07:06:16;5.60;99.90
31729;DHT22;18309;43.658;1.312;2022-12-18T07:08:46;5.60;99.90
31729;DHT22;18309;43.658;1.312;2022-12-18T07:11:12;5.60;99.90
31729;DHT22;18309;43.658;1.312;2022-12-18T07:13:37;5.60;99.90
31729;DHT22;18309;43.658;1.312;2022-12-18T07:16:08;5.60;99.90
31729;DHT22;18309;43.658;1.312;2022-12-18T07:18:35;5.50;99.90
31729;DHT22;18309;43.658;1.312;2022-12-18T07:21:10;5.50;99.90
31729;DHT22;18309;43.658;1.312;2022-12-18T07:23:36;5.50;99.90
31729;DHT22;18309;43.658;1.312;2022-12-18T07:28:29;5.50;99.90
31729;DHT22;18309;43.658;1.312;2022-12-18T07:30:54;5.50;99.90
31729;DHT22;18309;43.658;1.312;2022-12-18T07:33:20;5.40;99.90
31729;DHT22;18309;43.658;1.312;2022-12-18T07:35:46;5.10;99.90
31729;DHT22;18309;43.658;1.312;2022-12-18T07:38:11;4.90;99.90
31729;DHT22;18309;43.658;1.312;2022-12-18T07:40:37;4.80;99.90
31729;DHT22;18309;43.658;1.312;2022-12-18T07:43:03;4.70;99.90
31729;DHT22;18309;43.658;1.312;2022-12-18T07:45:31;4.60;99.90
31729;DHT22;18309;43.658;1.312;2022-12-18T07:47:57;4.60;99.90
31729;DHT22;18309;43.658;1.312;2022-12-18T07:50:23;4.60;99.90
31729;DHT22;18309;43.658;1.312;2022-12-18T07:52:49;4.50;99.90
31729;DHT22;18309;43.658;1.312;2022-12-18T07:55:15;4.50;99.90
31729;DHT22;18309;43.658;1.312;2022-12-18T07:57:41;4.50;99.90
31729;DHT22;18309;43.658;1.312;2022-12-18T08:00:07;4.40;99.90
31729;DHT22;18309;43.658;1.312;2022-12-18T08:02:33;4.50;99.90
31729;DHT22;18309;43.658;1.312;2022-12-18T08:04:58;4.50;99.90
31729;DHT22;18309;43.658;1.312;2022-12-18T08:07:24;4.50;99.90
31729;DHT22;18309;43.658;1.312;2022-12-18T08:09:50;4.50;99.90
31729;DHT22;18309;43.658;1.312;2022-12-18T08:12:16;4.50;99.90
31729;DHT22;18309;43.658;1.312;2022-12-18T08:14:41;4.60;99.90
31729;DHT22;18309;43.658;1.312;2022-12-18T08:17:07;4.50;99.90
31729;DHT22;18309;43.658;1.312;2022-12-18T08:19:33;4.50;99.90
31729;DHT22;18309;43.658;1.312;2022-12-18T08:21:58;4.50;99.90
31729;DHT22;18309;43.658;1.312;2022-12-18T08:24:24;4.60;99.90
31729;DHT22;18309;43.658;1.312;2022-12-18T08:26:51;4.60;99.90
31729;DHT22;18309;43.658;1.312;2022-12-18T08:29:17;4.60;99.90
31729;DHT22;18309;43.658;1.312;2022-12-18T08:31:42;4.60;99.90
31729;DHT22;18309;43.658;1.312;2022-12-18T08:34:08;4.70;99.90
31729;DHT22;18309;43.658;1.312;2022-12-18T08:36:34;4.70;99.90
31729;DHT22;18309;43.658;1.312;2022-12-18T08:38:59;4.70;99.90
31729;DHT22;18309;43.658;1.312;2022-12-18T08:41:25;4.70;99.90
31729;DHT22;18309;43.658;1.312;2022-12-18T08:43:51;4.70;99.90
31729;DHT22;18309;43.658;1.312;2022-12-18T08:46:38;4.80;99.90
31729;DHT22;18309;43.658;1.312;2022-12-18T08:49:04;4.80;99.90
31729;DHT22;18309;43.658;1.312;2022-12-18T08:51:31;4.80;99.90
31729;DHT22;18309;43.658;1.312;2022-12-18T08:53:56;4.90;99.90
31729;DHT22;18309;43.658;1.312;2022-12-18T08:56:23;4.90;99.90
31729;DHT22;18309;43.658;1.312;2022-12-18T08:58:54;5.00;99.90
31729;DHT22;18309;43.658;1.312;2022-12-18T09:01:20;5.10;99.90
31729;DHT22;18309;43.658;1.312;2022-12-18T09:03:47;5.10;99.90
31729;DHT22;18309;43.658;1.312;2022-12-18T09:06:15;5.20;99.90
31729;DHT22;18309;43.658;1.312;2022-12-18T09:08:42;5.30;99.90
31729;DHT22;18309;43.658;1.312;2022-12-18T09:11:25;5.30;99.90
31729;DHT22;18309;43.658;1.312;2022-12-18T09:13:51;5.30;99.90
31729;DHT22;18309;43.658;1.312;2022-12-18T09:16:17;5.40;99.90
31729;DHT22;18309;43.658;1.312;2022-12-18T09:18:43;5.50;99.90
31729;DHT22;18309;43.658;1.312;2022-12-18T09:21:14;5.50;99.90
31729;DHT22;18309;43.658;1.312;2022-12-18T09:23:40;5.60;99.90
31729;DHT22;18309;43.658;1.312;2022-12-18T09:26:05;5.60;99.90
31729;DHT22;18309;43.658;1.312;2022-12-18T09:28:31;5.70;99.90
31729;DHT22;18309;43.658;1.312;2022-12-18T09:30:57;5.80;99.90
31729;DHT22;18309;43.658;1.312;2022-12-18T09:33:22;5.80;99.90
31729;DHT22;18309;43.658;1.312;2022-12-18T09:35:48;5.90;99.90
31729;DHT22;18309;43.658;1.312;2022-12-18T09:38:19;6.00;99.90
31729;DHT22;18309;43.658;1.312;2022-12-18T09:40:59;6.10;99.90
31729;DHT22;18309;43.658;1.312;2022-12-18T09:46:07;6.30;99.90
31729;DHT22;18309;43.658;1.312;2022-12-18T09:48:41;6.30;99.90
31729;DHT22;18309;43.658;1.312;2022-12-18T09:51:22;6.40;99.90
31729;DHT22;18309;43.658;1.312;2022-12-18T09:54:00;6.50;99.90
31729;DHT22;18309;43.658;1.312;2022-12-18T09:56:29;6.50;99.90
31729;DHT22;18309;43.658;1.312;2022-12-18T09:58:59;6.70;99.90
31729;DHT22;18309;43.658;1.312;2022-12-18T10:01:27;6.70;99.90
31729;DHT22;18309;43.658;1.312;2022-12-18T10:03:54;6.80;99.90
31729;DHT22;18309;43.658;1.312;2022-12-18T10:06:39;6.90;99.90
31729;DHT22;18309;43.658;1.312;2022-12-18T10:09:17;7.10;99.90
31729;DHT22;18309;43.658;1.312;2022-12-18T10:11:49;7.40;99.90
31729;DHT22;18309;43.658;1.312;2022-12-18T10:14:34;7.60;99.90
31729;DHT22;18309;43.658;1.312;2022-12-18T10:27:44;8.40;99.90
31729;DHT22;18309;43.658;1.312;2022-12-18T10:30:15;8.50;99.90
31729;DHT22;18309;43.658;1.312;2022-12-18T10:32:41;8.60;99.90
31729;DHT22;18309;43.658;1.312;2022-12-18T10:35:26;8.70;99.90
31729;DHT22;18309;43.658;1.312;2022-12-18T10:38:19;8.80;99.90
31729;DHT22;18309;43.658;1.312;2022-12-18T10:40:56;9.00;99.90
31729;DHT22;18309;43.658;1.312;2022-12-18T10:43:28;9.10;99.90
31729;DHT22;18309;43.658;1.312;2022-12-18T10:46:17;9.20;99.90
31729;DHT22;18309;43.658;1.312;2022-12-18T10:51:20;9.30;99.90
31729;DHT22;18309;43.658;1.312;2022-12-18T10:53:56;9.40;99.90
31729;DHT22;18309;43.658;1.312;2022-12-18T10:56:24;9.40;99.90
31729;DHT22;18309;43.658;1.312;2022-12-18T10:59:05;9.50;99.90
31729;DHT22;18309;43.658;1.312;2022-12-18T11:01:55;9.50;99.90
31729;DHT22;18309;43.658;1.312;2022-12-18T11:04:30;9.60;99.90
31729;DHT22;18309;43.658;1.312;2022-12-18T11:09:33;9.60;99.90
31729;DHT22;18309;43.658;1.312;2022-12-18T11:12:02;9.60;99.90
31729;DHT22;18309;43.658;1.312;2022-12-18T11:14:32;9.70;99.90
31729;DHT22;18309;43.658;1.312;2022-12-18T11:16:59;9.70;99.90
31729;DHT22;18309;43.658;1.312;2022-12-18T11:19:36;9.80;99.90
31729;DHT22;18309;43.658;1.312;2022-12-18T11:22:24;9.80;99.90
31729;DHT22;18309;43.658;1.312;2022-12-18T11:24:58;9.90;99.90
31729;DHT22;18309;43.658;1.312;2022-12-18T11:27:25;9.90;99.90
31729;DHT22;18309;43.658;1.312;2022-12-18T11:29:51;9.90;99.90
31729;DHT22;18309;43.658;1.312;2022-12-18T11:32:32;10.00;99.90
31729;DHT22;18309;43.658;1.312;2022-12-18T11:36:02;10.00;99.90
31729;DHT22;18309;43.658;1.312;2022-12-18T11:38:01;10.10;99.90
31729;DHT22;18309;43.658;1.312;2022-12-18T11:40:41;10.10;99.90
31729;DHT22;18309;43.658;1.312;2022-12-18T11:43:42;10.10;99.90
31729;DHT22;18309;43.658;1.312;2022-12-18T11:46:38;10.20;99.90
31729;DHT22;18309;43.658;1.312;2022-12-18T11:49:19;10.30;99.90
31729;DHT22;18309;43.658;1.312;2022-12-18T11:52:13;10.40;99.90
31729;DHT22;18309;43.658;1.312;2022-12-18T11:54:39;10.50;99.90
31729;DHT22;18309;43.658;1.312;2022-12-18T12:00:16;10.70;99.90
31729;DHT22;18309;43.658;1.312;2022-12-18T12:03:24;10.80;99.90
31729;DHT22;18309;43.658;1.312;2022-12-18T12:15:06;11.20;99.90
31729;DHT22;18309;43.658;1.312;2022-12-18T12:23:26;11.60;99.90
31729;DHT22;18309;43.658;1.312;2022-12-18T12:26:03;11.70;99.90
31729;DHT22;18309;43.658;1.312;2022-12-18T12:39:03;12.00;99.90
31729;DHT22;18309;43.658;1.312;2022-12-18T12:41:32;12.10;99.90
31729;DHT22;18309;43.658;1.312;2022-12-18T12:44:24;12.10;99.90
31729;DHT22;18309;43.658;1.312;2022-12-18T12:46:52;12.20;99.90
31729;DHT22;18309;43.658;1.312;2022-12-18T12:49:26;12.30;99.90
31729;DHT22;18309;43.658;1.312;2022-12-18T12:52:32;12.30;99.90
31729;DHT22;18309;43.658;1.312;2022-12-18T12:55:02;12.40;99.90
31729;DHT22;18309;43.658;1.312;2022-12-18T12:57:40;12.40;99.90
31729;DHT22;18309;43.658;1.312;2022-12-18T13:00:14;12.40;99.90
31729;DHT22;18309;43.658;1.312;2022-12-18T13:08:07;12.60;99.90
31729;DHT22;18309;43.658;1.312;2022-12-18T13:10:41;12.80;99.90
31729;DHT22;18309;43.658;1.312;2022-12-18T13:13:12;12.90;99.90
31729;DHT22;18309;43.658;1.312;2022-12-18T13:18:56;13.00;99.90
31729;DHT22;18309;43.658;1.312;2022-12-18T13:21:30;13.00;99.90
31729;DHT22;18309;43.658;1.312;2022-12-18T13:24:15;13.10;99.90
31729;DHT22;18309;43.658;1.312;2022-12-18T13:26:45;13.20;99.90
31729;DHT22;18309;43.658;1.312;2022-12-18T13:29:11;13.20;99.90
31729;DHT22;18309;43.658;1.312;2022-12-18T13:34:18;13.40;99.90
31729;DHT22;18309;43.658;1.312;2022-12-18T13:36:50;13.40;99.90
31729;DHT22;18309;43.658;1.312;2022-12-18T13:41:48;13.50;99.90
31729;DHT22;18309;43.658;1.312;2022-12-18T13:44:34;13.60;99.90
31729;DHT22;18309;43.658;1.312;2022-12-18T13:47:02;13.80;99.80
31729;DHT22;18309;43.658;1.312;2022-12-18T13:49:37;14.10;99.60
31729;DHT22;18309;43.658;1.312;2022-12-18T13:52:18;14.20;99.20
31729;DHT22;18309;43.658;1.312;2022-12-18T13:54:45;14.30;98.90
31729;DHT22;18309;43.658;1.312;2022-12-18T13:57:34;14.50;98.40
31729;DHT22;18309;43.658;1.312;2022-12-18T14:02:48;14.80;97.60
31729;DHT22;18309;43.658;1.312;2022-12-18T14:05:36;15.00;97.30
31729;DHT22;18309;43.658;1.312;2022-12-18T14:08:05;15.30;96.60
31729;DHT22;18309;43.658;1.312;2022-12-18T14:10:32;16.00;96.00
31729;DHT22;18309;43.658;1.312;2022-12-18T14:13:05;16.30;94.60
31729;DHT22;18309;43.658;1.312;2022-12-18T14:15:34;17.10;93.00
31729;DHT22;18309;43.658;1.312;2022-12-18T14:20:48;20.00;87.20
31729;DHT22;18309;43.658;1.312;2022-12-18T14:26:00;21.70;82.10
31729;DHT22;18309;43.658;1.312;2022-12-18T14:28:26;21.80;81.60
31729;DHT22;18309;43.658;1.312;2022-12-18T14:30:52;21.80;80.30
31729;DHT22;18309;43.658;1.312;2022-12-18T14:33:26;21.50;81.00
31729;DHT22;18309;43.658;1.312;2022-12-18T14:35:58;21.80;80.00
31729;DHT22;18309;43.658;1.312;2022-12-18T14:38:38;22.10;79.50
31729;DHT22;18309;43.658;1.312;2022-12-18T14:41:12;21.90;79.70
31729;DHT22;18309;43.658;1.312;2022-12-18T14:43:43;22.20;79.40
31729;DHT22;18309;43.658;1.312;2022-12-18T14:46:28;22.70;77.90
31729;DHT22;18309;43.658;1.312;2022-12-18T14:48:54;21.40;80.80
31729;DHT22;18309;43.658;1.312;2022-12-18T14:51:28;18.10;91.00
31729;DHT22;18309;43.658;1.312;2022-12-18T14:59:21;14.40;97.50
31729;DHT22;18309;43.658;1.312;2022-12-18T15:04:40;13.70;99.20
31729;DHT22;18309;43.658;1.312;2022-12-18T15:09:42;13.30;99.90
31729;DHT22;18309;43.658;1.312;2022-12-18T15:12:25;13.20;99.90
31729;DHT22;18309;43.658;1.312;2022-12-18T15:14:51;13.20;99.90
31729;DHT22;18309;43.658;1.312;2022-12-18T15:17:22;13.00;99.90
31729;DHT22;18309;43.658;1.312;2022-12-18T15:19:50;12.90;99.90
31729;DHT22;18309;43.658;1.312;2022-12-18T15:22:33;12.70;99.90
31729;DHT22;18309;43.658;1.312;2022-12-18T15:25:00;12.70;99.90
31729;DHT22;18309;43.658;1.312;2022-12-18T15:32:35;12.30;99.90
31729;DHT22;18309;43.658;1.312;2022-12-18T15:37:39;12.10;99.90
31729;DHT22;18309;43.658;1.312;2022-12-18T15:40:05;12.10;99.90
31729;DHT22;18309;43.658;1.312;2022-12-18T15:42:31;12.00;99.90
31729;DHT22;18309;43.658;1.312;2022-12-18T15:45:15;11.80;99.90
31729;DHT22;18309;43.658;1.312;2022-12-18T15:47:41;11.80;99.90
31729;DHT22;18309;43.658;1.312;2022-12-18T15:50:08;11.80;99.90
31729;DHT22;18309;43.658;1.312;2022-12-18T15:52:43;11.70;99.90
31729;DHT22;18309;43.658;1.312;2022-12-18T15:55:15;11.70;99.90
31729;DHT22;18309;43.658;1.312;2022-12-18T15:57:59;11.60;99.90
31729;DHT22;18309;43.658;1.312;2022-12-18T16:00:25;11.50;99.90
31729;DHT22;18309;43.658;1.312;2022-12-18T16:02:51;11.50;99.90
31729;DHT22;18309;43.658;1.312;2022-12-18T16:05:18;11.40;99.90
31729;DHT22;18309;43.658;1.312;2022-12-18T16:07:45;11.40;99.90
31729;DHT22;18309;43.658;1.312;2022-12-18T16:10:12;11.30;99.90
31729;DHT22;18309;43.658;1.312;2022-12-18T16:12:41;11.30;99.90
31729;DHT22;18309;43.658;1.312;2022-12-18T16:15:08;11.30;99.90
31729;DHT22;18309;43.658;1.312;2022-12-18T16:17:35;11.20;99.90
31729;DHT22;18309;43.658;1.312;2022-12-18T16:20:01;11.10;99.90
31729;DHT22;18309;43.658;1.312;2022-12-18T16:22:29;11.10;99.90
31729;DHT22;18309;43.658;1.312;2022-12-18T16:24:56;11.10;99.90
31729;DHT22;18309;43.658;1.312;2022-12-18T16:27:23;11.00;99.90
31729;DHT22;18309;43.658;1.312;2022-12-18T16:29:49;11.00;99.90
31729;DHT22;18309;43.658;1.312;2022-12-18T16:32:18;10.90;99.90
31729;DHT22;18309;43.658;1.312;2022-12-18T16:34:44;10.90;99.90
31729;DHT22;18309;43.658;1.312;2022-12-18T16:37:12;10.90;99.90
31729;DHT22;18309;43.658;1.312;2022-12-18T16:39:38;10.80;99.90
31729;DHT22;18309;43.658;1.312;2022-12-18T16:42:11;10.80;99.90
31729;DHT22;18309;43.658;1.312;2022-12-18T16:44:42;10.80;99.90
31729;DHT22;18309;43.658;1.312;2022-12-18T16:47:09;10.80;99.90
31729;DHT22;18309;43.658;1.312;2022-12-18T16:49:35;10.80;99.90
31729;DHT22;18309;43.658;1.312;2022-12-18T16:52:04;10.80;99.90
31729;DHT22;18309;43.658;1.312;2022-12-18T16:54:30;10.70;99.90
31729;DHT22;18309;43.658;1.312;2022-12-18T16:56:58;10.80;99.90
31729;DHT22;18309;43.658;1.312;2022-12-18T16:59:25;10.70;99.90
31729;DHT22;18309;43.658;1.312;2022-12-18T17:01:51;10.70;99.90
31729;DHT22;18309;43.658;1.312;2022-12-18T17:04:17;10.70;99.90
31729;DHT22;18309;43.658;1.312;2022-12-18T17:06:44;10.70;99.90
31729;DHT22;18309;43.658;1.312;2022-12-18T17:09:12;10.60;99.90
31729;DHT22;18309;43.658;1.312;2022-12-18T17:11:39;10.50;99.90
31729;DHT22;18309;43.658;1.312;2022-12-18T17:14:07;10.50;99.90
31729;DHT22;18309;43.658;1.312;2022-12-18T17:16:33;10.50;99.90
31729;DHT22;18309;43.658;1.312;2022-12-18T17:18:58;10.50;99.90
31729;DHT22;18309;43.658;1.312;2022-12-18T17:21:24;10.50;99.90
31729;DHT22;18309;43.658;1.312;2022-12-18T17:23:50;10.50;99.90
31729;DHT22;18309;43.658;1.312;2022-12-18T17:26:16;10.50;99.90
31729;DHT22;18309;43.658;1.312;2022-12-18T17:28:41;10.50;99.90
31729;DHT22;18309;43.658;1.312;2022-12-18T17:31:12;10.40;99.90
31729;DHT22;18309;43.658;1.312;2022-12-18T17:33:39;10.50;99.90
31729;DHT22;18309;43.658;1.312;2022-12-18T17:36:05;10.50;99.90
31729;DHT22;18309;43.658;1.312;2022-12-18T17:38:31;10.50;99.90
31729;DHT22;18309;43.658;1.312;2022-12-18T17:41:04;10.60;99.90
31729;DHT22;18309;43.658;1.312;2022-12-18T17:43:31;10.60;99.90
31729;DHT22;18309;43.658;1.312;2022-12-18T17:46:01;10.70;99.90
31729;DHT22;18309;43.658;1.312;2022-12-18T17:48:27;10.70;99.90
31729;DHT22;18309;43.658;1.312;2022-12-18T17:50:53;10.80;99.90
31729;DHT22;18309;43.658;1.312;2022-12-18T17:53:19;10.70;99.90
31729;DHT22;18309;43.658;1.312;2022-12-18T17:55:53;10.80;99.90